Time;durP1;ratioP1;P1;durP2;ratioP2;P2;SDS_P1;SDS_P2;PMS_P1;PMS_P2;Temp;Humidity;BMP_temperature;BMP_pressure;BME280_temperature;BME280_humidity;BME280_pressure;Samples;Min_cycle;Max_cycle;Signal;HPM_P1;HPM_P2
2023/11/04 00:00:00;;;;;;;1.07;0.70;;;19.80;73.20;;;;;;5054830;28;20592;-90
2023/11/04 00:02:27;;;;;;;1.07;0.73;;;19.80;73.20;;;;;;5054766;28;20465;-91
2023/11/04 00:04:55;;;;;;;1.17;0.70;;;19.80;73.20;;;;;;5054430;28;20513;-91
2023/11/04 00:07:22;;;;;;;1.70;0.87;;;19.80;73.20;;;;;;5054430;28;20436;-91
2023/11/04 00:09:49;;;;;;;1.17;0.90;;;19.70;73.10;;;;;;5054461;28;20440;-90
2023/11/04 00:12:17;;;;;;;1.00;0.70;;;19.80;73.20;;;;;;5054199;28;20480;-90
2023/11/04 00:14:44;;;;;;;1.87;1.00;;;19.80;73.20;;;;;;5054192;28;20443;-91
2023/11/04 00:17:11;;;;;;;1.00;0.80;;;19.70;73.10;;;;;;5054352;28;20524;-91
2023/11/04 00:19:38;;;;;;;1.30;0.73;;;19.70;73.10;;;;;;5054324;28;20477;-91
2023/11/04 00:22:06;;;;;;;1.20;0.90;;;19.70;73.10;;;;;;5054380;28;20792;-91
2023/11/04 00:24:33;;;;;;;1.10;0.80;;;19.70;73.30;;;;;;5053938;28;20488;-91
2023/11/04 00:27:00;;;;;;;1.80;0.80;;;19.70;73.10;;;;;;5054279;28;20451;-90
2023/11/04 00:29:27;;;;;;;1.40;0.93;;;19.70;73.00;;;;;;5054335;28;20793;-91
2023/11/04 00:31:55;;;;;;;1.17;0.80;;;19.80;73.10;;;;;;5053821;28;20461;-90
2023/11/04 00:34:21;;;;;;;1.33;0.80;;;19.70;73.00;;;;;;5053724;28;20503;-93
2023/11/04 00:36:48;;;;;;;1.20;0.70;;;19.70;73.10;;;;;;5053856;28;20445;-91
2023/11/04 00:39:17;;;;;;;1.43;1.00;;;19.70;73.10;;;;;;5053970;28;20526;-90
2023/11/04 00:41:44;;;;;;;1.10;0.70;;;19.70;73.10;;;;;;5054068;28;20464;-91
2023/11/04 00:44:11;;;;;;;1.27;0.80;;;19.70;73.90;;;;;;5053565;28;20491;-90
2023/11/04 00:46:38;;;;;;;1.00;0.80;;;19.70;73.10;;;;;;5053834;28;20632;-94
2023/11/04 00:49:05;;;;;;;1.10;0.80;;;19.80;73.20;;;;;;5053522;28;20947;-90
2023/11/04 00:51:32;;;;;;;1.00;0.80;;;19.70;73.10;;;;;;5053869;28;20526;-91
2023/11/04 00:53:59;;;;;;;1.00;0.63;;;19.70;73.10;;;;;;5053898;28;20451;-91
2023/11/04 00:56:27;;;;;;;1.10;0.90;;;19.70;73.10;;;;;;5053691;28;20444;-90
2023/11/04 00:58:54;;;;;;;1.20;0.80;;;19.70;73.10;;;;;;5053582;28;20444;-90
2023/11/04 01:01:21;;;;;;;1.10;0.80;;;19.70;73.10;;;;;;5053239;28;20538;-93
2023/11/04 01:03:48;;;;;;;1.40;1.00;;;19.70;73.10;;;;;;5052933;28;20507;-91
2023/11/04 01:06:15;;;;;;;1.10;0.83;;;19.70;73.10;;;;;;5053479;28;20468;-91
2023/11/04 01:08:42;;;;;;;1.00;0.70;;;19.70;73.10;;;;;;5053688;28;20469;-91
2023/11/04 01:11:09;;;;;;;1.10;0.80;;;19.70;73.10;;;;;;5053370;28;20532;-91
2023/11/04 01:13:37;;;;;;;0.90;0.60;;;19.70;73.10;;;;;;5053294;28;20440;-91
2023/11/04 01:16:04;;;;;;;1.00;0.70;;;19.70;73.10;;;;;;5053075;28;20539;-92
2023/11/04 01:18:31;;;;;;;1.00;0.70;;;19.70;73.10;;;;;;5053302;28;21006;-94
2023/11/04 01:20:58;;;;;;;1.00;0.70;;;19.70;73.10;;;;;;5053387;28;20471;-94
2023/11/04 01:23:25;;;;;;;1.47;0.80;;;19.60;73.00;;;;;;5053078;28;20484;-91
2023/11/04 01:25:52;;;;;;;1.10;0.70;;;19.70;73.10;;;;;;5053164;28;20511;-94
2023/11/04 01:28:19;;;;;;;1.10;0.73;;;19.70;73.10;;;;;;5053167;28;20472;-91
2023/11/04 01:30:47;;;;;;;1.20;0.90;;;19.60;73.00;;;;;;5053156;28;20477;-90
2023/11/04 01:33:14;;;;;;;1.93;0.90;;;19.70;73.10;;;;;;5053498;28;20531;-90
2023/11/04 01:35:41;;;;;;;1.00;0.60;;;19.70;73.10;;;;;;5053270;28;20452;-90
2023/11/04 01:38:08;;;;;;;1.30;0.93;;;19.70;73.10;;;;;;5053267;28;20444;-91
2023/11/04 01:40:35;;;;;;;1.10;0.80;;;19.70;73.10;;;;;;5053057;28;20539;-90
2023/11/04 01:43:02;;;;;;;1.20;0.80;;;19.70;73.10;;;;;;5052895;28;20840;-90
2023/11/04 01:45:29;;;;;;;1.10;0.70;;;19.70;73.10;;;;;;5053273;28;20445;-91
2023/11/04 01:47:57;;;;;;;1.00;0.70;;;19.70;73.10;;;;;;5052910;28;20536;-90
2023/11/04 01:50:24;;;;;;;1.00;0.70;;;19.70;73.00;;;;;;5052873;28;20473;-90
2023/11/04 01:52:51;;;;;;;1.10;0.90;;;19.70;73.00;;;;;;5053035;28;20440;-90
2023/11/04 01:55:18;;;;;;;1.20;0.67;;;19.70;73.00;;;;;;5052925;28;20523;-94
2023/11/04 01:57:45;;;;;;;1.10;0.80;;;19.70;73.00;;;;;;5053247;28;20846;-90
2023/11/04 02:00:13;;;;;;;1.10;0.70;;;19.70;73.00;;;;;;5052967;28;20923;-90
2023/11/04 02:02:42;;;;;;;1.30;0.90;;;19.70;73.00;;;;;;5052939;28;20448;-90
2023/11/04 02:05:11;;;;;;;1.30;0.90;;;19.70;73.00;;;;;;5053075;28;20452;-91
2023/11/04 02:07:38;;;;;;;1.00;0.80;;;19.70;73.90;;;;;;5052961;28;20527;-90
2023/11/04 02:10:06;;;;;;;1.00;0.67;;;19.70;73.00;;;;;;5052804;28;20536;-90
2023/11/04 02:12:33;;;;;;;1.00;0.80;;;19.60;72.90;;;;;;5052262;28;21042;-91
2023/11/04 02:15:00;;;;;;;1.30;0.90;;;19.70;73.00;;;;;;5056186;28;20867;-90
2023/11/04 02:17:27;;;;;;;1.00;0.70;;;19.60;72.90;;;;;;5056604;28;20441;-90
2023/11/04 02:19:57;;;;;;;1.03;0.73;;;19.60;72.80;;;;;;5056690;28;20448;-94
2023/11/04 02:22:26;;;;;;;1.20;0.70;;;19.60;72.90;;;;;;5056663;28;20471;-90
2023/11/04 02:24:52;;;;;;;1.50;0.80;;;19.60;72.80;;;;;;5056208;28;20562;-90
2023/11/04 02:27:19;;;;;;;1.10;0.83;;;19.60;72.80;;;;;;5056555;28;20547;-90
2023/11/04 02:29:48;;;;;;;1.30;0.70;;;19.60;73.00;;;;;;5056426;28;20536;-90
2023/11/04 02:32:15;;;;;;;1.27;0.83;;;19.60;72.90;;;;;;5056227;28;21017;-90
2023/11/04 02:34:42;;;;;;;1.10;0.70;;;19.60;72.80;;;;;;5056156;28;20448;-90
2023/11/04 02:37:09;;;;;;;1.00;0.70;;;19.60;72.80;;;;;;5056060;28;20518;-91
2023/11/04 02:39:37;;;;;;;0.90;0.60;;;19.60;72.80;;;;;;5056374;28;20854;-90
2023/11/04 02:42:04;;;;;;;1.40;0.70;;;19.60;72.80;;;;;;5056178;28;20561;-91
2023/11/04 02:44:31;;;;;;;1.30;0.73;;;19.70;72.90;;;;;;5055928;28;20505;-90
2023/11/04 02:46:58;;;;;;;1.00;0.73;;;19.60;72.80;;;;;;5055940;28;20483;-90
2023/11/04 02:49:25;;;;;;;1.20;0.77;;;19.70;72.80;;;;;;5055852;28;20445;-90
2023/11/04 02:51:52;;;;;;;1.87;0.80;;;19.70;72.80;;;;;;5055993;28;20478;-91
2023/11/04 02:54:19;;;;;;;2.20;0.90;;;19.70;72.80;;;;;;5055818;28;20454;-91
2023/11/04 02:56:47;;;;;;;1.00;0.70;;;19.60;72.70;;;;;;5056030;28;20449;-91
2023/11/04 02:59:14;;;;;;;1.30;0.83;;;19.60;72.80;;;;;;5055794;28;20472;-90
2023/11/04 03:01:42;;;;;;;1.70;0.80;;;19.60;72.80;;;;;;5055797;28;20875;-91
2023/11/04 03:04:10;;;;;;;1.20;0.80;;;19.60;72.80;;;;;;5055809;28;20483;-91
2023/11/04 03:06:37;;;;;;;1.00;0.70;;;19.60;72.80;;;;;;5055695;28;20441;-91
2023/11/04 03:09:04;;;;;;;1.10;0.90;;;19.60;72.80;;;;;;5055482;28;20448;-91
2023/11/04 03:11:31;;;;;;;0.97;0.70;;;19.60;72.70;;;;;;5055192;28;20530;-91
2023/11/04 03:13:59;;;;;;;1.10;0.77;;;19.60;73.60;;;;;;5055564;28;20499;-94
2023/11/04 03:16:27;;;;;;;1.43;1.00;;;19.60;72.80;;;;;;5055757;28;20803;-90
2023/11/04 03:18:53;;;;;;;1.10;0.77;;;19.60;72.70;;;;;;5055394;28;20471;-90
2023/11/04 03:21:21;;;;;;;1.20;0.70;;;19.60;72.70;;;;;;5055316;28;20944;-91
2023/11/04 03:23:48;;;;;;;1.50;0.73;;;19.60;72.70;;;;;;5055093;28;20571;-94
2023/11/04 03:26:17;;;;;;;2.03;0.70;;;19.60;72.70;;;;;;5054566;28;20448;-91
2023/11/04 03:28:44;;;;;;;1.00;0.80;;;19.60;72.70;;;;;;5055273;28;20506;-90
2023/11/04 03:31:12;;;;;;;1.00;0.60;;;19.60;72.60;;;;;;5055351;28;20883;-90
2023/11/04 03:33:39;;;;;;;1.87;0.80;;;19.60;72.60;;;;;;5055144;28;20440;-91
2023/11/04 03:36:08;;;;;;;0.90;0.70;;;19.60;72.70;;;;;;5055116;28;20445;-91
2023/11/04 03:38:35;;;;;;;0.90;0.70;;;19.60;72.70;;;;;;5055526;28;20440;-91
2023/11/04 03:41:03;;;;;;;1.00;0.70;;;19.60;72.70;;;;;;5054878;28;20436;-91
2023/11/04 03:43:30;;;;;;;0.90;0.60;;;19.60;72.70;;;;;;5054888;28;20526;-90
2023/11/04 03:45:57;;;;;;;1.00;0.70;;;19.60;72.70;;;;;;5054974;28;20444;-92
2023/11/04 03:48:26;;;;;;;0.97;0.63;;;19.60;72.70;;;;;;5054813;28;20539;-94
2023/11/04 03:50:53;;;;;;;1.10;0.70;;;19.60;72.70;;;;;;5055042;28;20483;-93
2023/11/04 03:53:20;;;;;;;1.00;0.70;;;19.60;72.70;;;;;;5054762;28;20444;-90
2023/11/04 03:55:47;;;;;;;0.93;0.70;;;19.60;72.70;;;;;;5054842;28;20527;-91
2023/11/04 03:58:13;;;;;;;1.00;0.70;;;19.60;72.70;;;;;;5054650;28;20455;-90
2023/11/04 04:00:41;;;;;;;1.50;0.70;;;19.60;72.70;;;;;;5054569;28;20527;-90
2023/11/04 04:03:07;;;;;;;0.90;0.60;;;19.60;72.70;;;;;;5054740;28;20448;-91
2023/11/04 04:05:36;;;;;;;1.10;0.70;;;19.60;72.70;;;;;;5054231;28;20481;-91
2023/11/04 04:08:03;;;;;;;1.00;0.70;;;19.60;72.60;;;;;;5054531;28;20531;-90
2023/11/04 04:10:29;;;;;;;1.03;0.70;;;19.60;72.60;;;;;;5054405;28;20435;-90
2023/11/04 04:12:57;;;;;;;1.00;0.70;;;19.60;72.60;;;;;;5054213;28;20875;-90
2023/11/04 04:15:24;;;;;;;1.17;0.70;;;19.60;72.60;;;;;;5054372;28;20836;-91
2023/11/04 04:17:51;;;;;;;1.10;0.70;;;19.60;72.60;;;;;;5054421;28;20531;-91
2023/11/04 04:20:20;;;;;;;1.30;0.70;;;19.60;72.60;;;;;;5054427;28;20531;-91
2023/11/04 04:22:49;;;;;;;1.10;0.73;;;19.60;72.60;;;;;;5054407;28;20563;-91
2023/11/04 04:25:15;;;;;;;1.10;0.70;;;19.60;72.60;;;;;;5054076;28;20557;-91
2023/11/04 04:27:42;;;;;;;1.03;0.70;;;19.60;72.60;;;;;;5054047;28;20531;-90
2023/11/04 04:30:10;;;;;;;1.03;0.73;;;19.60;72.60;;;;;;5054541;28;20519;-90
2023/11/04 04:32:37;;;;;;;0.90;0.60;;;19.60;72.60;;;;;;5054128;28;20527;-91
2023/11/04 04:35:05;;;;;;;1.10;0.70;;;19.60;72.60;;;;;;5053849;28;20950;-94
2023/11/04 04:37:32;;;;;;;1.13;0.70;;;19.60;72.60;;;;;;5053865;28;20523;-91
2023/11/04 04:40:00;;;;;;;1.00;0.73;;;19.60;72.50;;;;;;5053885;28;20486;-91
2023/11/04 04:42:27;;;;;;;1.00;0.70;;;19.60;72.60;;;;;;5053778;28;20552;-91
2023/11/04 04:44:54;;;;;;;1.10;0.80;;;19.60;72.60;;;;;;5053738;28;20895;-91
2023/11/04 04:47:20;;;;;;;1.00;0.60;;;19.60;72.60;;;;;;5053908;28;20539;-91
2023/11/04 04:49:48;;;;;;;1.10;0.63;;;19.60;72.60;;;;;;5053639;28;20475;-91
2023/11/04 04:52:17;;;;;;;1.00;0.80;;;19.60;72.60;;;;;;5053734;28;20453;-90
2023/11/04 04:54:44;;;;;;;1.00;0.70;;;19.60;72.60;;;;;;5053729;28;20524;-91
2023/11/04 04:57:12;;;;;;;1.17;0.70;;;19.60;72.60;;;;;;5053861;28;20446;-90
2023/11/04 04:59:39;;;;;;;1.00;0.70;;;19.60;72.60;;;;;;5053807;28;20524;-90
2023/11/04 05:02:06;;;;;;;1.00;0.70;;;19.60;72.60;;;;;;5053567;28;20540;-90
2023/11/04 05:04:33;;;;;;;1.07;0.70;;;19.60;72.60;;;;;;5053271;28;20519;-91
2023/11/04 05:07:00;;;;;;;1.00;0.70;;;19.60;72.60;;;;;;5053478;28;20531;-90
2023/11/04 05:09:28;;;;;;;1.20;0.70;;;19.60;72.60;;;;;;5053352;28;20895;-91
2023/11/04 05:11:55;;;;;;;1.10;0.70;;;19.60;72.60;;;;;;5053026;28;20550;-93
2023/11/04 05:14:23;;;;;;;1.00;0.70;;;19.60;72.60;;;;;;5053096;28;20931;-90
2023/11/04 05:16:50;;;;;;;0.90;0.60;;;19.50;72.50;;;;;;5053489;28;20528;-92
2023/11/04 05:19:18;;;;;;;0.90;0.60;;;19.60;72.60;;;;;;5053394;28;20487;-91
2023/11/04 05:21:45;;;;;;;0.90;0.70;;;19.60;72.60;;;;;;5053466;28;20543;-90
2023/11/04 05:24:12;;;;;;;0.97;0.67;;;19.50;72.50;;;;;;5053242;28;20622;-90
2023/11/04 05:26:40;;;;;;;1.10;0.83;;;19.60;72.60;;;;;;5053499;28;20551;-91
2023/11/04 05:29:07;;;;;;;1.00;0.70;;;19.60;72.60;;;;;;5053385;28;20449;-91
2023/11/04 05:31:37;;;;;;;1.00;0.60;;;19.60;72.60;;;;;;5053184;28;20931;-91
2023/11/04 05:34:04;;;;;;;1.00;0.60;;;19.50;72.50;;;;;;5052981;28;20444;-90
2023/11/04 05:36:30;;;;;;;0.90;0.60;;;19.50;72.50;;;;;;5052964;28;21031;-91
2023/11/04 05:38:57;;;;;;;1.00;0.67;;;19.50;72.50;;;;;;5053144;28;20440;-91
2023/11/04 05:41:24;;;;;;;0.97;0.70;;;19.50;72.50;;;;;;5052985;28;20457;-90
2023/11/04 05:43:51;;;;;;;1.03;0.70;;;19.50;72.60;;;;;;5053013;28;20768;-90
2023/11/04 05:46:18;;;;;;;1.20;0.90;;;19.50;72.50;;;;;;5052804;28;21057;-91
2023/11/04 05:48:46;;;;;;;1.00;0.60;;;19.50;72.50;;;;;;5054442;28;20492;-91
2023/11/04 05:51:13;;;;;;;0.93;0.57;;;19.50;72.50;;;;;;5057274;28;20444;-91
2023/11/04 05:53:40;;;;;;;0.90;0.60;;;19.50;72.50;;;;;;5057031;28;20538;-91
2023/11/04 05:56:08;;;;;;;1.17;0.70;;;19.60;72.60;;;;;;5057127;28;20528;-91
2023/11/04 05:58:35;;;;;;;0.97;0.60;;;19.50;72.40;;;;;;5056999;28;20447;-91
2023/11/04 06:01:04;;;;;;;1.00;0.70;;;19.50;72.50;;;;;;5056964;28;21014;-94
2023/11/04 06:03:31;;;;;;;1.30;0.80;;;19.60;72.50;;;;;;5057083;28;20449;-90
2023/11/04 06:05:59;;;;;;;0.90;0.67;;;19.50;72.50;;;;;;5056559;28;20556;-94
2023/11/04 06:08:26;;;;;;;1.03;0.70;;;19.50;72.40;;;;;;5056834;28;20440;-90
2023/11/04 06:10:53;;;;;;;0.93;0.60;;;19.50;72.50;;;;;;5056753;28;20459;-91
2023/11/04 06:13:20;;;;;;;0.90;0.60;;;19.50;72.50;;;;;;5056771;28;20551;-91
2023/11/04 06:15:47;;;;;;;0.90;0.60;;;19.50;72.50;;;;;;5056651;28;20540;-91
2023/11/04 06:18:14;;;;;;;1.00;0.70;;;19.50;72.50;;;;;;5056718;28;20492;-90
2023/11/04 06:20:41;;;;;;;1.00;0.70;;;19.50;72.50;;;;;;5056697;28;20805;-91
2023/11/04 06:23:09;;;;;;;1.23;0.90;;;19.50;72.50;;;;;;5056497;28;20511;-91
2023/11/04 06:25:36;;;;;;;1.00;0.60;;;19.50;72.50;;;;;;5056344;28;20511;-90
2023/11/04 06:28:03;;;;;;;1.10;0.60;;;19.50;72.60;;;;;;5056654;28;20546;-95
2023/11/04 06:30:29;;;;;;;1.10;0.70;;;19.50;72.50;;;;;;5056564;28;20449;-91
2023/11/04 06:32:56;;;;;;;1.23;0.60;;;19.50;72.50;;;;;;5056259;28;20448;-91
2023/11/04 06:35:24;;;;;;;1.00;0.70;;;19.50;73.10;;;;;;5056218;28;20443;-90
2023/11/04 06:37:51;;;;;;;0.90;0.60;;;19.50;72.50;;;;;;5056533;28;20490;-90
2023/11/04 06:40:19;;;;;;;1.27;0.70;;;19.50;73.30;;;;;;5056130;28;20443;-90
2023/11/04 06:42:46;;;;;;;1.03;0.60;;;19.50;72.50;;;;;;5056355;28;20884;-91
2023/11/04 06:45:13;;;;;;;1.00;0.70;;;19.50;72.50;;;;;;5055975;28;20583;-91
2023/11/04 06:47:40;;;;;;;0.97;0.67;;;19.50;72.40;;;;;;5056208;28;21038;-91
2023/11/04 06:50:08;;;;;;;1.07;0.77;;;19.50;72.40;;;;;;5056155;28;20527;-90
2023/11/04 06:52:35;;;;;;;0.93;0.60;;;19.50;72.40;;;;;;5056030;28;20444;-91
2023/11/04 06:55:02;;;;;;;1.00;0.70;;;19.50;72.50;;;;;;5055831;28;20451;-90
2023/11/04 06:57:31;;;;;;;2.13;0.70;;;19.50;72.50;;;;;;5056104;28;20524;-91
2023/11/04 06:59:58;;;;;;;1.00;0.70;;;19.50;72.50;;;;;;5054827;28;20535;-90
2023/11/04 07:02:25;;;;;;;1.00;0.80;;;19.50;72.50;;;;;;5055677;28;20963;-91
2023/11/04 07:04:52;;;;;;;1.00;0.70;;;19.50;72.40;;;;;;5055572;28;20484;-91
2023/11/04 07:07:19;;;;;;;0.90;0.60;;;19.50;72.40;;;;;;5055644;28;20539;-91
2023/11/04 07:09:45;;;;;;;1.00;0.60;;;19.50;72.50;;;;;;5056100;28;20537;-90
2023/11/04 07:12:12;;;;;;;1.00;0.70;;;19.50;72.40;;;;;;5055290;28;20560;-90
2023/11/04 07:14:40;;;;;;;1.00;0.70;;;19.50;72.40;;;;;;5055683;28;20531;-90
2023/11/04 07:17:07;;;;;;;1.00;0.60;;;19.50;72.40;;;;;;5055691;28;20440;-90
2023/11/04 07:19:34;;;;;;;0.90;0.60;;;19.50;72.40;;;;;;5055335;28;20533;-90
2023/11/04 07:22:01;;;;;;;1.00;0.70;;;19.50;72.40;;;;;;5055473;28;20483;-91
2023/11/04 07:24:28;;;;;;;1.00;0.70;;;19.50;72.50;;;;;;5055244;28;20440;-94
2023/11/04 07:26:55;;;;;;;1.10;0.70;;;19.50;72.50;;;;;;5055134;28;20944;-91
2023/11/04 07:29:22;;;;;;;0.90;0.60;;;19.50;72.40;;;;;;5055512;28;20448;-94
2023/11/04 07:31:50;;;;;;;1.10;0.90;;;19.50;72.40;;;;;;5055235;28;20525;-90
2023/11/04 07:34:18;;;;;;;1.00;0.70;;;19.50;72.50;;;;;;5055505;28;20449;-91
2023/11/04 07:36:45;;;;;;;2.03;0.80;;;19.50;72.50;;;;;;5055125;28;20448;-92
2023/11/04 07:39:12;;;;;;;0.90;0.60;;;19.50;72.50;;;;;;5055565;28;20440;-91
2023/11/04 07:41:42;;;;;;;1.00;0.70;;;19.50;72.50;;;;;;5055130;28;20499;-90
2023/11/04 07:44:09;;;;;;;0.97;0.60;;;19.50;72.50;;;;;;5055078;28;20455;-91
2023/11/04 07:46:36;;;;;;;1.00;0.67;;;19.50;72.40;;;;;;5054733;28;20526;-90
2023/11/04 07:49:04;;;;;;;0.90;0.60;;;19.50;72.40;;;;;;5054775;28;20440;-92
2023/11/04 07:51:31;;;;;;;1.00;0.70;;;19.50;72.80;;;;;;5054807;28;20463;-91
2023/11/04 07:53:58;;;;;;;1.00;0.70;;;19.50;72.50;;;;;;5054748;28;20440;-91
2023/11/04 07:56:26;;;;;;;0.90;0.60;;;19.50;72.50;;;;;;5054775;28;20521;-91
2023/11/04 07:58:53;;;;;;;1.23;0.70;;;19.50;72.40;;;;;;5054577;28;20452;-90
2023/11/04 08:01:20;;;;;;;0.90;0.60;;;19.60;72.60;;;;;;5054679;28;20884;-91
2023/11/04 08:03:47;;;;;;;1.00;0.70;;;19.70;72.60;;;;;;5054762;28;20768;-91
2023/11/04 08:06:17;;;;;;;1.00;0.70;;;19.70;72.60;;;;;;5054641;28;20515;-91
2023/11/04 08:08:44;;;;;;;0.90;0.60;;;19.70;72.50;;;;;;5054679;28;20451;-91
2023/11/04 08:11:10;;;;;;;0.97;0.73;;;19.70;72.40;;;;;;5054228;28;20461;-91
2023/11/04 08:13:38;;;;;;;1.93;0.83;;;19.70;73.20;;;;;;5054435;28;20464;-90
2023/11/04 08:16:06;;;;;;;1.00;0.60;;;19.70;72.20;;;;;;5054662;28;20487;-91
2023/11/04 08:18:32;;;;;;;1.00;0.60;;;19.70;72.30;;;;;;5054599;28;20444;-91
2023/11/04 08:21:00;;;;;;;1.00;0.70;;;19.70;72.30;;;;;;5054524;28;20466;-91
2023/11/04 08:23:29;;;;;;;0.90;0.60;;;19.70;72.40;;;;;;5054226;28;20472;-94
2023/11/04 08:25:56;;;;;;;1.10;0.63;;;19.70;72.40;;;;;;5053945;28;20580;-91
2023/11/04 08:28:22;;;;;;;1.00;0.70;;;19.70;72.40;;;;;;5054377;28;20444;-91
2023/11/04 08:30:51;;;;;;;0.90;0.60;;;19.70;72.40;;;;;;5054361;28;20810;-94
2023/11/04 08:33:18;;;;;;;1.00;0.70;;;19.70;72.40;;;;;;5054038;28;20456;-91
2023/11/04 08:35:45;;;;;;;0.90;0.60;;;19.70;72.30;;;;;;5054209;28;20479;-91
2023/11/04 08:38:12;;;;;;;1.00;0.70;;;19.70;72.40;;;;;;5054332;28;20448;-90
2023/11/04 08:40:40;;;;;;;1.00;0.70;;;19.70;72.40;;;;;;5054059;28;20440;-91
2023/11/04 08:43:07;;;;;;;1.00;0.60;;;19.80;72.40;;;;;;5053752;28;20531;-91
2023/11/04 08:45:34;;;;;;;1.00;0.60;;;19.70;72.30;;;;;;5053864;28;20483;-91
2023/11/04 08:48:00;;;;;;;1.10;0.70;;;19.70;72.30;;;;;;5053703;28;20433;-91
2023/11/04 08:50:28;;;;;;;1.53;0.70;;;19.70;72.30;;;;;;5053686;28;20445;-91
2023/11/04 08:52:55;;;;;;;1.23;0.90;;;19.70;72.40;;;;;;5053902;28;20446;-90
2023/11/04 08:55:22;;;;;;;1.20;0.70;;;19.70;72.40;;;;;;5053865;28;20489;-91
2023/11/04 08:57:50;;;;;;;1.50;0.70;;;19.70;72.40;;;;;;5053836;28;20463;-91
2023/11/04 09:00:18;;;;;;;0.90;0.60;;;19.80;72.50;;;;;;5053496;28;20969;-91
2023/11/04 09:02:44;;;;;;;1.00;0.70;;;19.70;72.40;;;;;;5053860;28;20441;-94
2023/11/04 09:05:11;;;;;;;1.00;0.70;;;19.80;72.50;;;;;;5053333;28;20532;-91
2023/11/04 09:07:38;;;;;;;0.90;0.60;;;19.80;72.50;;;;;;5053401;28;20539;-91
2023/11/04 09:10:06;;;;;;;1.00;0.70;;;19.80;72.40;;;;;;5053461;28;20446;-90
2023/11/04 09:12:32;;;;;;;0.97;0.70;;;19.80;72.40;;;;;;5053045;28;20477;-91
2023/11/04 09:15:01;;;;;;;0.90;0.60;;;19.80;72.30;;;;;;5053417;28;20453;-91
2023/11/04 09:17:28;;;;;;;0.90;0.70;;;19.80;72.40;;;;;;5053458;28;20499;-91
2023/11/04 09:19:54;;;;;;;1.00;0.70;;;19.80;72.40;;;;;;5053405;28;20468;-95
2023/11/04 09:22:21;;;;;;;2.20;0.70;;;19.90;72.50;;;;;;5053392;28;20450;-95
2023/11/04 09:24:48;;;;;;;0.90;0.60;;;19.80;72.50;;;;;;5053370;28;20440;-91
2023/11/04 09:27:17;;;;;;;1.00;0.70;;;19.80;72.40;;;;;;5053113;28;20527;-91
2023/11/04 09:29:43;;;;;;;0.90;0.63;;;19.80;72.50;;;;;;5053029;28;20957;-91
2023/11/04 09:32:12;;;;;;;1.10;0.70;;;19.80;73.40;;;;;;5053172;28;20509;-91
2023/11/04 09:34:39;;;;;;;1.20;0.70;;;19.80;73.30;;;;;;5053028;28;20439;-91
2023/11/04 09:37:06;;;;;;;0.90;0.60;;;19.80;72.50;;;;;;5053187;28;20444;-91
2023/11/04 09:39:33;;;;;;;1.00;0.60;;;19.80;72.50;;;;;;5053212;28;20487;-91
2023/11/04 09:42:00;;;;;;;1.10;0.60;;;19.80;72.50;;;;;;5053258;28;20480;-91
2023/11/04 09:44:27;;;;;;;0.90;0.70;;;19.90;72.50;;;;;;5053040;28;20472;-92
2023/11/04 09:46:54;;;;;;;1.20;0.80;;;20.10;72.00;;;;;;5053026;28;20480;-91
2023/11/04 09:49:22;;;;;;;0.90;0.60;;;20.20;71.60;;;;;;5053063;28;21103;-91
2023/11/04 09:51:49;;;;;;;1.10;0.60;;;20.20;71.50;;;;;;5052997;28;20503;-91
2023/11/04 09:54:18;;;;;;;0.90;0.60;;;20.20;71.50;;;;;;5053233;28;20448;-91
2023/11/04 09:56:45;;;;;;;1.27;0.67;;;20.20;71.60;;;;;;5053121;28;20448;-91
2023/11/04 09:59:11;;;;;;;1.20;0.60;;;20.20;71.70;;;;;;5052923;28;20447;-91
2023/11/04 10:01:40;;;;;;;0.97;0.60;;;20.10;71.80;;;;;;5052865;28;20459;-91
2023/11/04 10:04:07;;;;;;;1.10;0.70;;;20.10;71.90;;;;;;5052780;28;21001;-91
2023/11/04 10:06:35;;;;;;;0.93;0.60;;;20.00;71.90;;;;;;5052923;28;20481;-91
2023/11/04 10:09:03;;;;;;;0.90;0.60;;;20.00;72.00;;;;;;5053169;28;20864;-93
2023/11/04 10:11:32;;;;;;;1.30;0.70;;;20.20;71.80;;;;;;5052342;28;20991;-91
2023/11/04 10:13:59;;;;;;;1.00;0.70;;;20.40;71.50;;;;;;5053114;28;20827;-95
2023/11/04 10:16:29;;;;;;;1.57;0.80;;;20.50;71.30;;;;;;5052752;28;20445;-91
2023/11/04 10:18:56;;;;;;;1.00;0.70;;;20.50;71.20;;;;;;5052864;28;20444;-91
2023/11/04 10:21:23;;;;;;;1.00;0.70;;;20.50;71.40;;;;;;5052933;28;20441;-91
2023/11/04 10:23:51;;;;;;;1.00;0.60;;;20.40;71.40;;;;;;5052746;28;20867;-91
2023/11/04 10:26:20;;;;;;;1.00;0.67;;;20.50;71.40;;;;;;5052469;28;20991;-94
2023/11/04 10:28:47;;;;;;;1.00;0.80;;;20.60;71.40;;;;;;5052664;28;20447;-91
2023/11/04 10:31:17;;;;;;;0.90;0.60;;;20.60;71.40;;;;;;5052945;28;20484;-95
2023/11/04 10:33:45;;;;;;;1.30;0.60;;;20.60;71.30;;;;;;5052861;28;20531;-94
2023/11/04 10:36:12;;;;;;;0.90;0.60;;;20.50;71.30;;;;;;5056145;28;20433;-91
2023/11/04 10:38:44;;;;;;;1.00;0.70;;;20.50;71.50;;;;;;5056719;28;20943;-92
2023/11/04 10:41:17;;;;;;;1.40;0.70;;;20.50;71.60;;;;;;5056143;28;21032;-91
2023/11/04 10:43:52;;;;;;;1.00;0.60;;;20.40;71.50;;;;;;5056423;28;20540;-91
2023/11/04 10:46:27;;;;;;;1.00;0.70;;;20.40;71.60;;;;;;5056037;28;20570;-95
2023/11/04 10:49:02;;;;;;;0.90;0.60;;;20.40;71.70;;;;;;5056322;28;20459;-92
2023/11/04 10:51:38;;;;;;;0.97;0.67;;;20.30;71.80;;;;;;5056261;28;20441;-94
2023/11/04 10:54:11;;;;;;;1.00;0.60;;;20.30;71.90;;;;;;5056002;28;20523;-92
2023/11/04 10:56:46;;;;;;;1.77;0.70;;;20.30;72.90;;;;;;5056166;28;20947;-91
2023/11/04 10:59:24;;;;;;;0.90;0.60;;;20.30;72.10;;;;;;5056264;28;20530;-91
2023/11/04 11:01:52;;;;;;;1.00;0.60;;;20.30;72.50;;;;;;5056277;28;20525;-91
2023/11/04 11:04:19;;;;;;;1.00;0.70;;;20.20;72.10;;;;;;5056020;28;20995;-94
2023/11/04 11:06:47;;;;;;;1.00;0.67;;;20.20;72.10;;;;;;5055653;28;20522;-91
2023/11/04 11:09:15;;;;;;;1.10;0.70;;;20.20;72.10;;;;;;5055610;28;20793;-91
2023/11/04 11:11:54;;;;;;;1.00;0.70;;;20.20;72.20;;;;;;5055536;28;20474;-91
2023/11/04 11:14:22;;;;;;;0.93;0.67;;;20.20;72.30;;;;;;5055548;28;20476;-91
2023/11/04 11:17:00;;;;;;;1.00;0.70;;;20.10;72.20;;;;;;5055698;28;20870;-91
2023/11/04 11:19:27;;;;;;;1.10;0.77;;;20.10;72.30;;;;;;5055691;28;20448;-91
2023/11/04 11:21:54;;;;;;;1.00;0.70;;;20.10;72.30;;;;;;5055620;28;20469;-91
2023/11/04 11:24:22;;;;;;;0.90;0.60;;;20.10;72.40;;;;;;5055540;28;20531;-91
2023/11/04 11:26:51;;;;;;;1.87;0.70;;;20.10;72.30;;;;;;5055354;28;21062;-91
2023/11/04 11:29:20;;;;;;;1.20;0.60;;;20.10;72.40;;;;;;5055378;28;20469;-91
2023/11/04 11:31:47;;;;;;;0.90;0.60;;;20.10;72.40;;;;;;5055314;28;20546;-91
2023/11/04 11:34:14;;;;;;;0.90;0.60;;;20.10;72.30;;;;;;5055300;28;20433;-91
2023/11/04 11:36:44;;;;;;;1.00;0.70;;;20.10;72.40;;;;;;5055281;28;20437;-91
2023/11/04 11:39:12;;;;;;;0.90;0.70;;;20.10;72.40;;;;;;5055399;28;20445;-91
2023/11/04 11:41:41;;;;;;;1.20;0.70;;;20.10;72.40;;;;;;5055073;28;20465;-91
2023/11/04 11:44:10;;;;;;;1.00;0.60;;;20.10;72.50;;;;;;5055142;28;20494;-92
2023/11/04 11:46:37;;;;;;;1.03;0.70;;;20.10;72.60;;;;;;5054286;28;20574;-91
2023/11/04 11:49:07;;;;;;;0.93;0.70;;;20.10;72.50;;;;;;5055077;28;20480;-92
2023/11/04 11:51:36;;;;;;;1.00;0.70;;;20.10;72.60;;;;;;5055096;28;20451;-94
2023/11/04 11:54:04;;;;;;;1.00;0.70;;;20.10;72.60;;;;;;5054768;28;20821;-91
2023/11/04 11:56:31;;;;;;;1.00;0.70;;;20.00;72.40;;;;;;5054938;28;20861;-91
2023/11/04 11:59:03;;;;;;;1.10;0.70;;;20.10;72.50;;;;;;5055110;28;20528;-91
2023/11/04 12:01:31;;;;;;;1.00;0.67;;;20.00;72.50;;;;;;5054937;28;20444;-95
2023/11/04 12:04:00;;;;;;;1.00;0.70;;;20.00;72.50;;;;;;5054916;28;20531;-91
2023/11/04 12:06:27;;;;;;;1.10;0.67;;;20.00;72.50;;;;;;5054795;28;20477;-91
2023/11/04 12:08:55;;;;;;;1.10;0.70;;;20.00;72.50;;;;;;5054698;28;20467;-91
2023/11/04 12:11:23;;;;;;;0.90;0.60;;;20.00;72.50;;;;;;5054459;28;20518;-91
2023/11/04 12:13:50;;;;;;;1.20;0.70;;;20.00;72.60;;;;;;5054562;28;20530;-95
2023/11/04 12:16:17;;;;;;;1.00;0.60;;;20.00;72.50;;;;;;5054668;28;20535;-91
2023/11/04 12:18:47;;;;;;;1.00;0.67;;;20.00;72.50;;;;;;5054474;28;20442;-92
2023/11/04 12:21:15;;;;;;;1.10;0.70;;;20.00;73.40;;;;;;5054542;28;20445;-92
2023/11/04 12:23:42;;;;;;;1.00;0.70;;;20.00;72.50;;;;;;5054445;28;20520;-92
2023/11/04 12:26:09;;;;;;;0.90;0.60;;;20.00;72.50;;;;;;5054275;28;20436;-95
2023/11/04 12:28:37;;;;;;;1.00;0.80;;;20.00;72.50;;;;;;5054342;28;20448;-92
2023/11/04 12:31:05;;;;;;;0.90;0.60;;;20.00;72.50;;;;;;5054456;28;20438;-92
2023/11/04 12:33:32;;;;;;;0.90;0.60;;;20.00;72.50;;;;;;5054452;28;20438;-92
2023/11/04 12:36:02;;;;;;;1.10;0.70;;;20.00;72.50;;;;;;5054650;28;20491;-94
2023/11/04 12:38:28;;;;;;;1.10;0.60;;;20.00;72.60;;;;;;5054128;28;20515;-92
2023/11/04 12:40:55;;;;;;;1.00;0.70;;;20.00;72.50;;;;;;5053990;28;21062;-91
2023/11/04 12:43:23;;;;;;;0.93;0.63;;;20.00;72.50;;;;;;5053892;28;20540;-92
2023/11/04 12:45:52;;;;;;;0.90;0.70;;;20.00;72.50;;;;;;5054079;28;20445;-92
2023/11/04 12:48:20;;;;;;;1.10;0.70;;;20.00;72.50;;;;;;5053787;28;21004;-91